Alameda, OR

8:41 PM PDT on March 30, 2015 (GMT -0700)
Concordia University | | Change Station
CLOSE
Current Station
Personal Weather Station
Location: Portland, OR
Elevation: 141 ft
Nearby Weather Stations

Elev 141 ft 45.57 °N, 122.64 °W | Updated 2 seconds ago

Scattered Clouds
Scattered Clouds
60.1 °F
Feels Like 60.1 °F
N
0.0
Wind Variable Wind from WSW
Gusts 7.0 mph

Today
High -- | Low -- °F
--% Chance of Precip.
Yesterday
High -- | Low -- °F
Precip. -- in
6:54 AM 7:36 PM
Waxing Gibbous, 84% visible
Pressure 29.93 in
Visibility 10.0 miles
Clouds Few 4800 ft
Scattered Clouds 6000 ft
Dew Point 46 °F
Humidity 60%
Rainfall 0.00 in
Snow Depth Not available.
UV 0 out of 12
Pollen 11.10 out of 12
Air Quality Not available.
Flu Activity Not available.
SPECI KPDX 310303Z 26019G23KT 10SM FEW048 SCT060 16/08 A2993 RMK AO2 WSHFT 0243 T01610083

More Conditions Fewer Conditions

Pressure 29.93 in
Visibility 10.0 miles
Clouds Few 4800 ft
Scattered Clouds 6000 ft
Dew Point 46 °F
Humidity 60%
Rainfall 0.00 in
Snow Depth Not available.
UV 0 out of 12
Pollen 11.10 out of 12
Air Quality Not available.
Flu Activity Not available.
SPECI KPDX 310303Z 26019G23KT 10SM FEW048 SCT060 16/08 A2993 RMK AO2 WSHFT 0243 T01610083

More Conditions Fewer Conditions

10-Day Weather Forecast

Almanac

Astronomy

Mar. 30, 2015 Rise Set
Actual Time
Civil Twilight
Nautical Twilight
Astronomical Twilight
Moon
Length of Visible Light
Length of Day
Tomorrow will be .
, % of the Moon is Illuminated

Today's Extremes

State Highs State Lows

Community

WunderPhotos

Upload Photos

1,809,713 photos uploaded!

WunderBlogs® & News

Nearby

Air Quality

  Air Quality AQ Index Pollutant
Not available.

Snow Depth

Station Depth Elevation

Earthquake Activity

City Distance Mag. Time & Date
Minimum magnitude displayed is 2.5.

Coastal Water Temperatures

Place Temperature

Stations

Nearby Weather Stations

Station Location Temp. Windchill Dew Point Humidity Wind Precip. Elev Updated Type